createdAt,value
2022-09-25T00:02:56.664Z,76.45
2022-09-25T00:06:05.719Z,76.45
2022-09-25T00:09:10.171Z,76.52
2022-09-25T00:12:13.312Z,76.46
2022-09-25T00:15:16.357Z,76.42
2022-09-25T00:18:40.673Z,76.39
2022-09-25T00:21:43.775Z,76.33
2022-09-25T00:24:47.633Z,76.31
2022-09-25T00:27:53.508Z,76.36
2022-09-25T00:30:56.919Z,76.42
2022-09-25T00:34:03.073Z,76.46
2022-09-25T00:37:07.160Z,76.55
2022-09-25T00:40:10.664Z,76.53
2022-09-25T00:43:33.514Z,76.52
2022-09-25T00:46:44.543Z,76.58
2022-09-25T00:49:47.617Z,76.66
2022-09-25T00:52:54.588Z,76.78
2022-09-25T00:55:59.733Z,76.91
2022-09-25T00:59:02.959Z,76.94
2022-09-25T01:02:10.217Z,76.98
2022-09-25T01:05:17.667Z,77.00
2022-09-25T01:08:24.572Z,77.02
2022-09-25T01:11:27.900Z,77.06
2022-09-25T01:14:34.267Z,77.22
2022-09-25T01:17:58.479Z,77.30
2022-09-25T01:21:24.424Z,77.37
2022-09-25T01:25:16.405Z,77.41
2022-09-25T01:28:29.676Z,77.38
2022-09-25T01:31:46.383Z,77.29
2022-09-25T01:35:04.619Z,77.28
2022-09-25T01:38:23.415Z,77.38
2022-09-25T01:41:31.743Z,77.43
2022-09-25T01:44:49.927Z,77.47
2022-09-25T01:47:53.198Z,77.55
2022-09-25T01:51:24.706Z,77.57
2022-09-25T01:54:40.147Z,77.60
2022-09-25T01:57:59.335Z,77.59
2022-09-25T02:01:13.587Z,77.65
2022-09-25T02:04:47.809Z,77.75
2022-09-25T02:07:55.608Z,77.87
2022-09-25T02:11:03.990Z,77.81
2022-09-25T02:14:37.866Z,77.86
2022-09-25T02:18:37.278Z,77.99
2022-09-25T02:21:42.948Z,77.96
2022-09-25T02:25:07.141Z,77.94
2022-09-25T02:28:10.131Z,78.00
2022-09-25T02:31:16.188Z,77.94
2022-09-25T02:34:19.888Z,78.01
2022-09-25T02:37:23.714Z,78.05
2022-09-25T02:40:44.825Z,78.07
2022-09-25T02:44:11.535Z,78.08
2022-09-25T02:47:57.260Z,78.08
2022-09-25T02:51:11.308Z,78.09
2022-09-25T02:54:27.489Z,78.21
2022-09-25T02:57:45.496Z,78.30
2022-09-25T03:00:52.240Z,78.27
2022-09-25T03:03:58.103Z,78.30
2022-09-25T03:07:02.551Z,78.32
2022-09-25T03:10:06.693Z,78.27
2022-09-25T03:13:20.114Z,78.23
2022-09-25T03:16:47.859Z,78.15
2022-09-25T03:19:50.802Z,78.03
2022-09-25T03:22:55.829Z,77.98
2022-09-25T03:25:59.544Z,77.98
2022-09-25T03:29:02.651Z,77.97
2022-09-25T03:32:05.690Z,78.02
2022-09-25T03:35:09.214Z,78.09
2022-09-25T03:38:12.592Z,78.21
2022-09-25T03:41:20.218Z,78.30
2022-09-25T03:44:23.067Z,78.31
2022-09-25T03:47:25.920Z,78.38
2022-09-25T03:50:28.887Z,78.33
2022-09-25T03:53:33.573Z,78.36
2022-09-25T03:56:36.672Z,78.34
2022-09-25T03:59:39.598Z,78.41
2022-09-25T04:02:42.608Z,78.52
2022-09-25T04:05:46.276Z,78.56
2022-09-25T04:08:50.073Z,78.51
2022-09-25T04:11:55.321Z,78.45
2022-09-25T04:14:58.207Z,78.50
2022-09-25T04:18:05.903Z,78.50
2022-09-25T04:21:12.268Z,78.48
2022-09-25T04:24:33.704Z,78.48
2022-09-25T04:27:36.986Z,78.46
2022-09-25T04:30:39.962Z,78.50
2022-09-25T04:33:48.818Z,78.61
2022-09-25T04:36:51.801Z,78.69
2022-09-25T04:39:56.137Z,78.77
2022-09-25T04:43:01.128Z,78.86
2022-09-25T04:46:06.297Z,78.92
2022-09-25T04:49:09.322Z,78.99
2022-09-25T04:52:13.885Z,78.98
2022-09-25T04:55:24.901Z,79.03
2022-09-25T04:58:27.949Z,79.10
2022-09-25T05:01:31.015Z,79.15
2022-09-25T05:04:34.097Z,79.27
2022-09-25T05:07:37.176Z,79.35
2022-09-25T05:10:40.332Z,79.40
2022-09-25T05:13:43.951Z,79.45
2022-09-25T05:16:47.250Z,79.54
2022-09-25T05:19:50.086Z,79.61
2022-09-25T05:22:59.519Z,79.68
2022-09-25T05:26:03.048Z,79.63
2022-09-25T05:29:06.290Z,79.64
2022-09-25T05:32:09.257Z,79.73
2022-09-25T05:35:12.118Z,79.84
2022-09-25T05:38:15.144Z,79.94
2022-09-25T05:41:18.719Z,80.09
2022-09-25T05:44:21.628Z,80.13
2022-09-25T05:47:24.497Z,80.17
2022-09-25T05:50:27.630Z,80.25
2022-09-25T05:53:39.522Z,80.28
2022-09-25T05:56:50.196Z,80.32
2022-09-25T05:59:54.359Z,80.22
2022-09-25T06:02:57.287Z,80.09
2022-09-25T06:06:02.609Z,80.11
2022-09-25T06:09:07.491Z,80.13
2022-09-25T06:12:10.368Z,80.26
2022-09-25T06:15:13.279Z,80.34
2022-09-25T06:18:16.235Z,80.49
2022-09-25T06:21:19.181Z,80.57
2022-09-25T06:24:22.113Z,80.59
2022-09-25T06:27:25.373Z,80.70
2022-09-25T06:30:36.875Z,80.67
2022-09-25T06:33:50.233Z,80.64
2022-09-25T06:36:53.146Z,80.66
2022-09-25T06:39:56.078Z,80.67
2022-09-25T06:43:00.532Z,80.68
2022-09-25T06:46:04.180Z,80.72
2022-09-25T06:49:07.175Z,80.74
2022-09-25T06:52:10.086Z,80.77
2022-09-25T06:55:12.993Z,80.94
2022-09-25T06:58:22.802Z,80.64
2022-09-25T07:01:25.783Z,80.36
2022-09-25T07:04:28.687Z,80.36
2022-09-25T07:07:31.629Z,80.48
2022-09-25T07:10:34.502Z,80.55
2022-09-25T07:13:37.402Z,80.69
2022-09-25T07:16:40.490Z,80.72
2022-09-25T07:19:43.328Z,80.55
2022-09-25T07:22:46.140Z,80.53
2022-09-25T07:25:49.515Z,80.41
2022-09-25T07:29:01.411Z,80.45
2022-09-25T07:32:04.859Z,80.45
2022-09-25T07:35:08.035Z,80.30
2022-09-25T07:38:10.915Z,80.34
2022-09-25T07:41:13.842Z,80.42
2022-09-25T07:44:37.900Z,80.56
2022-09-25T07:47:39.887Z,80.64
2022-09-25T07:50:42.720Z,80.51
2022-09-25T07:53:45.712Z,80.51
2022-09-25T07:56:48.531Z,80.25
2022-09-25T07:59:51.360Z,80.20
2022-09-25T08:02:59.109Z,80.07
2022-09-25T08:06:03.640Z,80.02
2022-09-25T08:09:10.345Z,80.04
2022-09-25T08:12:13.714Z,79.99
2022-09-25T08:15:16.754Z,80.08
2022-09-25T08:18:19.716Z,80.22
2022-09-25T08:21:22.600Z,80.48
2022-09-25T08:24:25.499Z,80.75
2022-09-25T08:27:29.386Z,80.85
2022-09-25T08:30:32.942Z,80.73
2022-09-25T08:33:37.106Z,80.66
2022-09-25T08:36:40.065Z,80.77
2022-09-25T08:39:43.131Z,80.76
2022-09-25T08:42:49.803Z,80.75
2022-09-25T08:46:13.389Z,80.86
2022-09-25T08:49:17.449Z,80.90
2022-09-25T08:52:22.867Z,80.87
2022-09-25T08:55:47.246Z,80.98
2022-09-25T08:58:56.099Z,81.19
2022-09-25T09:02:11.328Z,81.17
2022-09-25T09:05:33.931Z,81.20
2022-09-25T09:08:37.840Z,81.08
2022-09-25T09:11:50.361Z,81.04
2022-09-25T09:15:07.025Z,80.98
2022-09-25T09:18:28.066Z,80.90
2022-09-25T09:21:35.525Z,81.01
2022-09-25T09:25:03.257Z,81.03
2022-09-25T09:28:22.930Z,81.03
2022-09-25T09:31:45.950Z,81.19
2022-09-25T09:35:06.268Z,81.15
2022-09-25T09:38:42.480Z,81.41
2022-09-25T09:41:54.776Z,81.40
2022-09-25T09:45:14.451Z,81.05
2022-09-25T09:48:30.533Z,80.95
2022-09-25T09:51:40.488Z,80.99
2022-09-25T09:55:31.002Z,81.17
2022-09-25T09:58:45.235Z,81.35
2022-09-25T10:02:14.613Z,81.48
2022-09-25T10:05:20.938Z,81.38
2022-09-25T10:08:24.327Z,81.49
2022-09-25T10:11:31.569Z,81.13
2022-09-25T10:14:41.516Z,80.88
2022-09-25T10:17:44.845Z,80.87
2022-09-25T10:20:57.527Z,81.01
2022-09-25T10:24:03.280Z,80.36
2022-09-25T10:27:24.948Z,79.91
2022-09-25T10:30:28.138Z,79.49
2022-09-25T10:33:32.048Z,78.86
2022-09-25T10:36:39.359Z,78.18
2022-09-25T10:39:45.283Z,78.05
2022-09-25T10:42:49.276Z,78.14
2022-09-25T10:46:07.073Z,77.75
2022-09-25T10:49:36.276Z,78.31
2022-09-25T10:52:52.337Z,78.52
2022-09-25T10:56:05.191Z,78.03
2022-09-25T10:59:16.300Z,77.54
2022-09-25T11:02:31.335Z,77.83
2022-09-25T11:05:36.967Z,78.03
2022-09-25T11:08:41.409Z,77.45
2022-09-25T11:11:47.285Z,77.03
2022-09-25T11:15:03.259Z,76.76
2022-09-25T11:18:06.467Z,76.88
2022-09-25T11:21:18.279Z,76.63
2022-09-25T11:25:01.212Z,76.43
2022-09-25T11:28:14.983Z,75.33
2022-09-25T11:31:44.155Z,75.80
2022-09-25T11:35:11.543Z,75.68
2022-09-25T11:39:01.137Z,75.54
2022-09-25T11:42:19.429Z,75.24
2022-09-25T11:45:43.903Z,75.54
2022-09-25T11:49:12.483Z,75.42
2022-09-25T11:52:38.042Z,75.05
2022-09-25T11:56:00.325Z,74.76
2022-09-25T11:59:06.192Z,74.85
2022-09-25T12:02:15.095Z,74.99
2022-09-25T12:05:40.410Z,75.12
2022-09-25T12:09:03.086Z,74.68
2022-09-25T12:12:15.575Z,74.21
2022-09-25T12:15:38.580Z,74.11
2022-09-25T12:18:56.611Z,74.39
2022-09-25T12:22:05.916Z,73.34
2022-09-25T12:25:24.131Z,72.73
2022-09-25T12:28:41.644Z,72.60
2022-09-25T12:32:05.602Z,72.22
2022-09-25T12:35:22.843Z,71.87
2022-09-25T12:38:49.284Z,72.43
2022-09-25T12:42:10.245Z,72.49
2022-09-25T12:45:19.862Z,71.93
2022-09-25T12:48:34.576Z,71.62
2022-09-25T12:51:45.685Z,71.90
2022-09-25T12:55:07.406Z,72.35
2022-09-25T12:58:39.167Z,72.59
2022-09-25T13:02:06.184Z,72.31
2022-09-25T13:05:21.752Z,72.30
2022-09-25T13:08:43.598Z,72.82
2022-09-25T13:11:55.218Z,72.48
2022-09-25T13:15:04.467Z,72.83
2022-09-25T13:18:17.510Z,72.56
2022-09-25T13:21:36.989Z,72.90
2022-09-25T13:24:45.852Z,73.11
2022-09-25T13:27:50.198Z,72.62
2022-09-25T13:31:10.285Z,73.17
2022-09-25T13:34:21.094Z,73.19
2022-09-25T13:37:28.383Z,73.27
2022-09-25T13:40:45.802Z,73.50
2022-09-25T13:43:49.604Z,74.15
2022-09-25T13:47:36.619Z,73.95
2022-09-25T13:50:47.211Z,73.98
2022-09-25T13:54:03.191Z,74.55
2022-09-25T13:57:06.593Z,74.68
2022-09-25T14:00:15.906Z,74.90
2022-09-25T14:03:44.946Z,74.94
2022-09-25T14:06:54.678Z,75.04
2022-09-25T14:10:00.535Z,75.25
2022-09-25T14:13:07.118Z,75.59
2022-09-25T14:16:22.970Z,75.74
2022-09-25T14:19:32.952Z,75.38
2022-09-25T14:22:43.204Z,75.45
2022-09-25T14:25:47.685Z,75.79
2022-09-25T14:28:52.710Z,75.98
2022-09-25T14:32:04.029Z,76.28
2022-09-25T14:35:21.917Z,76.40
2022-09-25T14:38:43.081Z,76.35
2022-09-25T14:41:46.677Z,76.53
2022-09-25T14:45:06.366Z,76.47
2022-09-25T14:48:20.023Z,77.03
2022-09-25T14:51:41.853Z,77.42
2022-09-25T14:54:48.150Z,77.74
2022-09-25T14:57:52.369Z,77.75
2022-09-25T15:01:00.135Z,77.85
2022-09-25T15:04:06.215Z,77.77
2022-09-25T15:07:14.578Z,77.39
2022-09-25T15:10:38.605Z,77.20
2022-09-25T15:13:42.532Z,77.08
2022-09-25T15:17:04.302Z,77.06
2022-09-25T15:20:13.665Z,77.36
2022-09-25T15:23:21.339Z,77.43
2022-09-25T15:26:24.538Z,77.71
2022-09-25T15:29:27.728Z,77.79
2022-09-25T15:32:39.841Z,77.64
2022-09-25T15:35:42.837Z,77.75
2022-09-25T15:38:53.696Z,77.69
2022-09-25T15:41:56.986Z,77.79
2022-09-25T15:45:23.575Z,77.72
2022-09-25T15:48:31.424Z,77.75
2022-09-25T15:51:36.299Z,77.76
2022-09-25T15:54:45.220Z,78.06
2022-09-25T15:57:51.437Z,78.25
2022-09-25T16:01:20.211Z,78.44
2022-09-25T16:04:46.143Z,78.61
2022-09-25T16:07:49.731Z,78.72
2022-09-25T16:11:06.732Z,78.83
2022-09-25T16:14:20.954Z,78.98
2022-09-25T16:17:33.810Z,79.11
2022-09-25T16:20:39.509Z,79.22
2022-09-25T16:23:43.614Z,79.36
2022-09-25T16:26:52.817Z,79.46
2022-09-25T16:30:02.724Z,79.51
2022-09-25T16:33:23.850Z,79.64
2022-09-25T16:36:36.869Z,79.74
2022-09-25T16:39:40.088Z,79.83
2022-09-25T16:42:45.064Z,79.95
2022-09-25T16:46:01.704Z,80.04
2022-09-25T16:49:05.496Z,80.24
2022-09-25T16:52:08.970Z,80.38
2022-09-25T16:55:21.602Z,80.60
2022-09-25T16:58:24.871Z,80.84
2022-09-25T17:01:28.687Z,80.97
2022-09-25T17:04:35.883Z,81.10
2022-09-25T17:07:39.796Z,81.18
2022-09-25T17:10:42.873Z,81.24
2022-09-25T17:13:46.440Z,81.29
2022-09-25T17:16:50.900Z,81.33
2022-09-25T17:19:53.874Z,81.40
2022-09-25T17:22:57.577Z,81.40
2022-09-25T17:26:06.156Z,81.36
2022-09-25T17:29:09.803Z,81.23
2022-09-25T17:32:18.860Z,81.14
2022-09-25T17:35:45.937Z,81.15
2022-09-25T17:38:49.036Z,81.16
2022-09-25T17:41:52.295Z,81.17
2022-09-25T17:44:57.588Z,81.24
2022-09-25T17:48:04.297Z,81.27
2022-09-25T17:51:15.923Z,81.18
2022-09-25T17:54:19.149Z,81.03
2022-09-25T17:57:22.473Z,81.03
2022-09-25T18:00:25.937Z,81.03
2022-09-25T18:03:31.445Z,81.00
2022-09-25T18:06:34.467Z,81.02
2022-09-25T18:09:40.865Z,80.99
2022-09-25T18:12:43.862Z,81.01
2022-09-25T18:15:49.935Z,80.99
2022-09-25T18:19:11.919Z,80.88
2022-09-25T18:22:19.003Z,80.71
2022-09-25T18:25:26.226Z,80.65
2022-09-25T18:28:30.211Z,80.64
2022-09-25T18:31:33.748Z,80.62
2022-09-25T18:34:36.796Z,80.58
2022-09-25T18:41:03.374Z,80.60
2022-09-25T18:44:07.470Z,80.56
2022-09-25T18:47:11.711Z,80.58
2022-09-25T18:50:20.582Z,80.68
2022-09-25T18:53:24.785Z,80.82
2022-09-25T18:56:28.446Z,81.00
2022-09-25T18:59:31.440Z,81.16
2022-09-25T19:02:38.917Z,81.29
2022-09-25T19:05:42.557Z,81.33
2022-09-25T19:08:53.215Z,81.31
2022-09-25T19:11:56.499Z,81.21
2022-09-25T19:14:59.621Z,81.10
2022-09-25T19:18:04.358Z,80.92
2022-09-25T19:21:07.666Z,80.81
2022-09-25T19:24:11.105Z,80.74
2022-09-25T19:27:16.383Z,80.70
2022-09-25T19:30:19.637Z,80.71
2022-09-25T19:33:22.676Z,80.76
2022-09-25T19:36:32.452Z,80.76
2022-09-25T19:39:56.158Z,80.79
2022-09-25T19:43:01.117Z,80.86
2022-09-25T19:46:05.074Z,80.94
2022-09-25T19:49:08.115Z,81.02
2022-09-25T19:52:11.610Z,81.11
2022-09-25T19:55:15.375Z,81.18
2022-09-25T19:58:23.103Z,81.27
2022-09-25T20:01:30.362Z,81.32
2022-09-25T20:04:34.269Z,81.37
2022-09-25T20:07:37.559Z,81.43
2022-09-25T20:10:40.818Z,81.53
2022-09-25T20:13:44.519Z,81.63
2022-09-25T20:16:47.632Z,81.72
2022-09-25T20:19:51.462Z,81.87
2022-09-25T20:22:58.514Z,81.94
2022-09-25T20:26:17.198Z,82.03
2022-09-25T20:29:22.931Z,82.10
2022-09-25T20:32:28.742Z,82.18
2022-09-25T20:35:34.964Z,82.19
2022-09-25T20:38:41.034Z,82.14
2022-09-25T20:41:44.538Z,82.11
2022-09-25T20:44:51.944Z,82.09
2022-09-25T20:47:55.289Z,82.11
2022-09-25T20:50:58.758Z,82.16
2022-09-25T20:54:12.823Z,82.21
2022-09-25T20:57:19.326Z,82.31
2022-09-25T21:00:26.203Z,82.31
2022-09-25T21:03:33.808Z,82.25
2022-09-25T21:06:39.429Z,82.18
2022-09-25T21:09:44.987Z,82.11
2022-09-25T21:12:52.159Z,82.06
2022-09-25T21:16:07.515Z,82.01
2022-09-25T21:19:18.540Z,82.01
2022-09-25T21:22:21.970Z,81.97
2022-09-25T21:25:26.869Z,81.97
2022-09-25T21:28:32.114Z,81.91
2022-09-25T21:31:41.087Z,81.93
2022-09-25T21:34:57.433Z,81.91
2022-09-25T21:38:00.345Z,81.87
2022-09-25T21:41:09.905Z,81.88
2022-09-25T21:44:20.602Z,81.84
2022-09-25T21:47:23.473Z,81.74
2022-09-25T21:50:26.356Z,81.67
2022-09-25T21:53:29.875Z,81.55
2022-09-25T21:56:33.327Z,81.38
2022-09-25T21:59:36.237Z,81.18
2022-09-25T22:02:40.382Z,81.05
2022-09-25T22:05:48.175Z,80.88
2022-09-25T22:08:54.134Z,80.80
2022-09-25T22:11:57.479Z,80.71
2022-09-25T22:15:00.551Z,80.74
2022-09-25T22:18:03.497Z,80.67
2022-09-25T22:21:06.379Z,80.63
2022-09-25T22:24:09.977Z,80.66
2022-09-25T22:27:12.879Z,80.68
2022-09-25T22:30:15.875Z,80.71
2022-09-25T22:33:27.990Z,80.70
2022-09-25T22:36:32.075Z,80.73
2022-09-25T22:39:34.982Z,80.78
2022-09-25T22:42:37.813Z,80.84
2022-09-25T22:45:49.127Z,80.88
2022-09-25T22:48:52.300Z,80.80
2022-09-25T22:51:55.276Z,80.67
2022-09-25T22:54:58.122Z,80.54
2022-09-25T22:58:01.053Z,80.46
2022-09-25T23:01:07.870Z,80.43
2022-09-25T23:04:13.852Z,80.59
2022-09-25T23:07:16.701Z,80.77
2022-09-25T23:10:19.616Z,80.92
2022-09-25T23:13:22.712Z,81.12
2022-09-25T23:16:40.695Z,81.33
2022-09-25T23:19:43.574Z,81.53
2022-09-25T23:26:16.882Z,81.92
2022-09-25T23:29:22.200Z,82.06
2022-09-25T23:32:25.135Z,82.21
2022-09-25T23:35:28.059Z,82.34
2022-09-25T23:38:30.981Z,82.43
2022-09-25T23:41:38.288Z,82.49
2022-09-25T23:44:41.223Z,82.54
2022-09-25T23:47:44.184Z,82.58
2022-09-25T23:50:47.280Z,82.64
2022-09-25T23:53:50.551Z,82.65
2022-09-25T23:56:53.546Z,82.65
2022-09-25T23:59:56.751Z,82.60
